createdAt,value
2019-05-16T00:01:33.602Z,1.12
2019-05-16T00:04:04.608Z,1.12
2019-05-16T00:06:38.878Z,0.50
2019-05-16T00:09:09.427Z,1.75
2019-05-16T00:11:40.497Z,0.78
2019-05-16T00:14:11.506Z,5.67
2019-05-16T00:16:42.477Z,1.22
2019-05-16T00:19:13.556Z,1.15
2019-05-16T00:21:44.526Z,1.70
2019-05-16T00:24:18.532Z,1.30
2019-05-16T00:26:49.256Z,0.70
2019-05-16T00:29:20.257Z,0.85
2019-05-16T00:31:51.237Z,0.60
2019-05-16T00:34:22.226Z,0.57
2019-05-16T00:36:53.215Z,1.57
2019-05-16T00:39:24.176Z,2.42
2019-05-16T00:41:55.171Z,0.53
2019-05-16T00:44:28.059Z,1.60
2019-05-16T00:46:58.812Z,1.92
2019-05-16T00:49:29.776Z,0.72
2019-05-16T00:52:00.748Z,0.70
2019-05-16T00:54:32.673Z,1.02
2019-05-16T00:57:08.312Z,0.50
2019-05-16T00:59:39.800Z,3.65
2019-05-16T01:02:10.752Z,1.30
2019-05-16T01:04:41.729Z,3.95
2019-05-16T01:07:12.699Z,2.62
2019-05-16T01:09:43.698Z,0.80
2019-05-16T01:12:14.669Z,2.80
2019-05-16T01:14:47.678Z,0.33
2019-05-16T01:17:18.885Z,2.60
2019-05-16T01:19:51.764Z,2.77
2019-05-16T01:22:22.785Z,1.52
2019-05-16T01:24:53.746Z,1.32
2019-05-16T01:27:24.736Z,2.75
2019-05-16T01:29:55.701Z,1.85
2019-05-16T01:32:29.219Z,2.67
2019-05-16T01:34:59.370Z,2.90
2019-05-16T01:37:30.368Z,1.95
2019-05-16T01:40:01.351Z,1.70
2019-05-16T01:42:32.339Z,1.12
2019-05-16T01:45:04.006Z,1.70
2019-05-16T01:47:34.994Z,3.00
2019-05-16T01:50:09.246Z,1.15
2019-05-16T01:52:41.132Z,1.05
2019-05-16T01:55:12.230Z,0.65
2019-05-16T01:57:43.240Z,1.42
2019-05-16T02:00:15.143Z,5.20
2019-05-16T02:02:48.772Z,1.25
2019-05-16T02:05:19.933Z,1.98
2019-05-16T02:07:50.953Z,1.32
2019-05-16T02:10:21.995Z,1.45
2019-05-16T02:12:53.091Z,2.17
2019-05-16T02:15:24.126Z,0.90
2019-05-16T02:17:55.141Z,3.10
2019-05-16T02:20:28.170Z,0.82
2019-05-16T02:22:58.922Z,3.12
2019-05-16T02:25:29.886Z,0.50
2019-05-16T02:28:02.574Z,1.42
2019-05-16T02:30:33.663Z,1.12
2019-05-16T02:33:04.928Z,3.22
2019-05-16T02:35:35.993Z,6.87
2019-05-16T02:38:06.986Z,0.95
2019-05-16T02:40:41.530Z,1.30
2019-05-16T02:43:12.703Z,1.82
2019-05-16T02:45:43.847Z,1.92
2019-05-16T02:48:14.884Z,1.92
2019-05-16T02:50:45.836Z,1.30
2019-05-16T02:53:23.042Z,1.57
2019-05-16T02:55:54.064Z,0.72
2019-05-16T02:58:25.039Z,1.37
2019-05-16T03:00:56.024Z,3.75
2019-05-16T03:03:26.974Z,1.05
2019-05-16T03:06:01.421Z,0.88
2019-05-16T03:08:32.412Z,0.88
2019-05-16T03:11:03.473Z,2.05
2019-05-16T03:13:37.949Z,0.75
2019-05-16T03:16:11.943Z,1.17
2019-05-16T03:18:44.036Z,1.37
2019-05-16T03:21:14.998Z,1.87
2019-05-16T03:23:46.013Z,2.50
2019-05-16T03:26:16.993Z,2.27
2019-05-16T03:28:48.206Z,1.40
2019-05-16T03:31:24.515Z,1.57
2019-05-16T03:33:58.722Z,3.83
2019-05-16T03:36:25.683Z,1.55
2019-05-16T03:38:56.911Z,1.00
2019-05-16T03:41:30.669Z,1.37
2019-05-16T03:44:01.390Z,3.62
2019-05-16T03:46:32.519Z,1.92
2019-05-16T03:49:03.552Z,3.50
2019-05-16T03:51:34.588Z,0.70
2019-05-16T03:54:05.625Z,5.10
2019-05-16T03:56:36.577Z,1.55
2019-05-16T03:59:10.906Z,1.50
2019-05-16T04:01:41.284Z,4.58
2019-05-16T04:04:12.417Z,3.25
2019-05-16T04:06:43.349Z,2.72
2019-05-16T04:09:14.331Z,1.05
2019-05-16T04:11:45.332Z,5.12
2019-05-16T04:14:16.281Z,2.87
2019-05-16T04:16:50.897Z,3.50
2019-05-16T04:19:21.128Z,3.15
2019-05-16T04:21:52.313Z,1.00
2019-05-16T04:24:23.271Z,1.25
2019-05-16T04:26:54.228Z,3.25
2019-05-16T04:29:25.227Z,1.00
2019-05-16T04:31:57.654Z,0.72
2019-05-16T04:34:31.115Z,1.90
2019-05-16T04:37:02.073Z,0.57
2019-05-16T04:39:33.040Z,1.75
2019-05-16T04:42:04.006Z,2.98
2019-05-16T04:44:35.595Z,2.47
2019-05-16T04:47:06.539Z,3.35
2019-05-16T04:49:40.963Z,1.70
2019-05-16T04:52:11.320Z,0.95
2019-05-16T04:54:42.521Z,1.85
2019-05-16T04:57:13.547Z,1.35
2019-05-16T04:59:44.531Z,2.77
2019-05-16T05:02:15.498Z,2.27
2019-05-16T05:04:46.446Z,1.40
2019-05-16T05:07:20.438Z,3.02
2019-05-16T05:09:51.368Z,3.67
2019-05-16T05:12:22.509Z,1.60
2019-05-16T05:14:53.523Z,2.20
2019-05-16T05:17:24.503Z,1.25
2019-05-16T05:19:55.470Z,2.70
2019-05-16T05:22:26.442Z,1.75
2019-05-16T05:25:00.173Z,1.20
2019-05-16T05:27:31.096Z,0.70
2019-05-16T05:30:02.076Z,1.20
2019-05-16T05:32:34.067Z,0.57
2019-05-16T05:35:10.496Z,0.82
2019-05-16T05:37:41.925Z,1.30
2019-05-16T05:40:12.964Z,4.08
2019-05-16T05:42:45.635Z,3.22
2019-05-16T05:45:16.819Z,0.72
2019-05-16T05:47:50.497Z,1.02
2019-05-16T05:50:22.526Z,2.52
2019-05-16T05:52:53.626Z,1.75
2019-05-16T05:55:24.637Z,1.42
2019-05-16T05:57:55.618Z,2.05
2019-05-16T06:00:30.151Z,0.85
2019-05-16T06:03:00.443Z,0.80
2019-05-16T06:05:31.458Z,1.20
2019-05-16T06:08:02.454Z,0.93
2019-05-16T06:10:33.492Z,1.37
2019-05-16T06:13:04.492Z,3.17
2019-05-16T06:15:35.499Z,0.72
2019-05-16T06:18:10.821Z,2.10
2019-05-16T06:20:41.961Z,5.00
2019-05-16T06:23:13.913Z,0.90
2019-05-16T06:25:44.895Z,1.87
2019-05-16T06:28:15.874Z,1.72
2019-05-16T06:31:05.176Z,0.90
2019-05-16T06:33:36.206Z,2.15
2019-05-16T06:36:07.205Z,1.20
2019-05-16T06:38:49.627Z,4.03
2019-05-16T06:41:20.133Z,1.30
2019-05-16T06:43:51.197Z,2.30
2019-05-16T06:46:22.193Z,0.60
2019-05-16T06:48:53.194Z,1.45
2019-05-16T06:51:46.976Z,1.10
2019-05-16T06:54:29.925Z,1.85
2019-05-16T06:57:02.643Z,1.10
2019-05-16T06:59:33.643Z,1.00
2019-05-16T07:02:04.682Z,3.30
2019-05-16T07:04:35.678Z,0.98
2019-05-16T07:07:09.499Z,1.67
2019-05-16T07:09:57.329Z,2.92
2019-05-16T07:12:16.886Z,1.92
2019-05-16T07:14:50.500Z,1.57
2019-05-16T07:17:21.635Z,5.47
2019-05-16T07:19:52.851Z,1.00
2019-05-16T07:22:23.823Z,2.50
2019-05-16T07:24:59.830Z,1.32
2019-05-16T07:27:35.187Z,2.77
2019-05-16T07:30:10.409Z,1.72
2019-05-16T07:32:40.972Z,4.67
2019-05-16T07:35:12.224Z,2.22
2019-05-16T07:37:43.260Z,2.52
2019-05-16T07:40:19.581Z,1.50
2019-05-16T07:42:47.921Z,1.82
2019-05-16T07:45:20.403Z,1.00
2019-05-16T07:47:51.598Z,0.93
2019-05-16T07:50:22.564Z,1.22
2019-05-16T07:52:53.543Z,1.52
2019-05-16T07:55:24.500Z,1.65
2019-05-16T07:57:55.559Z,0.65
2019-05-16T08:00:45.890Z,3.22
2019-05-16T08:03:00.062Z,1.98
2019-05-16T08:05:33.401Z,1.67
2019-05-16T08:08:03.675Z,3.10
2019-05-16T08:10:41.825Z,1.00
2019-05-16T08:13:07.353Z,3.62
2019-05-16T08:15:40.663Z,3.47
2019-05-16T08:18:11.491Z,1.95
2019-05-16T08:20:43.743Z,1.95
2019-05-16T08:23:14.824Z,2.02
2019-05-16T08:25:45.826Z,0.93
2019-05-16T08:28:16.923Z,1.82
2019-05-16T08:30:47.895Z,1.35
2019-05-16T08:33:23.318Z,2.72
2019-05-16T08:35:54.338Z,4.35
2019-05-16T08:38:25.349Z,1.22
2019-05-16T08:44:12.178Z,0.60
2019-05-16T08:46:42.564Z,3.00
2019-05-16T08:49:13.671Z,3.30
2019-05-16T08:51:52.109Z,3.00
2019-05-16T08:54:21.500Z,2.75
2019-05-16T08:56:52.543Z,3.10
2019-05-16T08:59:40.909Z,2.40
2019-05-16T09:04:44.643Z,3.02
2019-05-16T09:07:15.874Z,1.47
2019-05-16T09:10:35.348Z,3.45
2019-05-16T09:12:19.547Z,1.35
2019-05-16T09:14:50.517Z,1.70
2019-05-16T09:17:21.505Z,2.27
2019-05-16T09:18:39.761Z,0.80
2019-05-16T09:19:52.503Z,1.20
2019-05-16T09:22:23.476Z,3.62
2019-05-16T09:24:57.984Z,1.70
2019-05-16T09:27:28.842Z,2.27
2019-05-16T09:30:00.684Z,2.55
2019-05-16T09:32:31.665Z,3.47
2019-05-16T09:35:02.756Z,3.98
2019-05-16T09:37:33.704Z,2.77
2019-05-16T09:40:12.310Z,1.17
2019-05-16T09:42:52.332Z,4.83
2019-05-16T09:46:03.211Z,1.32
2019-05-16T09:48:33.502Z,1.75
2019-05-16T09:51:08.189Z,2.30
2019-05-16T09:54:41.933Z,2.72
2019-05-16T10:39:18.676Z,7.87
2019-05-16T10:41:50.695Z,1.35
2019-05-16T10:44:22.041Z,1.92
2019-05-16T10:46:55.071Z,3.08
2019-05-16T10:49:41.807Z,3.87
2019-05-16T11:39:40.599Z,3.17
2019-05-16T11:42:11.604Z,2.50
2019-05-16T11:44:42.625Z,1.25
2019-05-16T11:47:13.704Z,2.22
2019-05-16T11:49:47.434Z,3.20
2019-05-16T11:52:18.053Z,1.37
2019-05-16T11:54:49.498Z,3.42
2019-05-16T11:57:20.492Z,2.10
2019-05-16T11:59:51.516Z,3.20
2019-05-16T12:02:22.519Z,2.17
2019-05-16T12:04:53.511Z,2.85
2019-05-16T12:07:32.323Z,1.60
2019-05-16T12:09:57.255Z,3.40
2019-05-16T12:12:28.248Z,3.25
2019-05-16T12:14:59.234Z,2.25
2019-05-16T12:17:30.350Z,1.62
2019-05-16T12:20:01.381Z,2.27
2019-05-16T12:22:32.384Z,1.35
2019-05-16T12:25:03.380Z,2.05
2019-05-16T12:27:41.703Z,2.12
2019-05-16T12:30:13.806Z,2.60
2019-05-16T12:32:43.921Z,2.75
2019-05-16T12:35:17.375Z,1.25
2019-05-16T12:37:48.198Z,1.72
2019-05-16T12:40:19.643Z,1.65
2019-05-16T12:42:54.095Z,1.20
2019-05-16T12:45:23.414Z,1.37
2019-05-16T12:47:54.404Z,2.08
2019-05-16T12:50:28.327Z,2.25
2019-05-16T12:52:58.893Z,1.72
2019-05-16T12:55:29.896Z,2.05
2019-05-16T12:58:12.485Z,2.10
2019-05-16T13:00:36.846Z,2.33
2019-05-16T13:03:07.379Z,1.70
2019-05-16T13:05:38.807Z,2.22
2019-05-16T13:08:09.838Z,1.80
2019-05-16T13:10:40.833Z,1.67
2019-05-16T13:13:11.862Z,3.27
2019-05-16T13:15:42.919Z,1.12
2019-05-16T13:18:13.921Z,1.65
2019-05-16T13:20:46.775Z,1.90
2019-05-16T13:23:18.406Z,1.55
2019-05-16T13:25:49.610Z,1.30
2019-05-16T13:28:20.634Z,2.37
2019-05-16T13:30:51.651Z,2.55
2019-05-16T13:33:22.677Z,2.27
2019-05-16T13:35:53.775Z,4.72
2019-05-16T13:38:27.647Z,4.72
2019-05-16T13:40:57.541Z,5.42
2019-05-16T13:43:28.553Z,4.12
2019-05-16T13:45:59.557Z,4.05
2019-05-16T13:48:30.591Z,1.52
2019-05-16T13:51:13.911Z,2.83
2019-05-16T13:53:36.855Z,3.27
2019-05-16T13:56:13.002Z,4.28
2019-05-16T13:58:39.953Z,5.40
2019-05-16T14:01:11.013Z,3.60
2019-05-16T14:03:42.065Z,3.33
2019-05-16T14:06:13.076Z,2.75
2019-05-16T14:08:46.676Z,2.40
2019-05-16T14:11:17.268Z,4.30
2019-05-16T14:13:48.501Z,5.85
2019-05-16T14:16:19.534Z,3.25
2019-05-16T14:18:50.543Z,7.40
2019-05-16T14:21:22.905Z,2.85
2019-05-16T14:23:53.933Z,3.80
2019-05-16T14:26:24.986Z,3.75
2019-05-16T14:28:57.691Z,3.83
2019-05-16T14:31:28.680Z,1.72
2019-05-16T14:33:59.682Z,1.90
2019-05-16T14:36:30.686Z,2.50
2019-05-16T14:39:01.707Z,4.45
2019-05-16T14:41:33.175Z,2.95
2019-05-16T14:44:04.192Z,3.60
2019-05-16T14:46:38.361Z,2.02
2019-05-16T14:49:08.496Z,2.15
2019-05-16T14:51:39.476Z,4.83
2019-05-16T14:54:10.505Z,3.12
2019-05-16T14:56:41.505Z,2.77
2019-05-16T14:59:12.535Z,3.87
2019-05-16T15:01:43.503Z,3.98
2019-05-16T15:04:14.530Z,3.27
2019-05-16T15:06:47.048Z,3.83
2019-05-16T15:09:19.055Z,7.03
2019-05-16T15:11:50.102Z,3.25
2019-05-16T15:14:21.093Z,3.77
2019-05-16T15:16:52.193Z,4.45
2019-05-16T15:19:23.169Z,4.65
2019-05-16T15:21:56.764Z,4.45
2019-05-16T15:24:26.966Z,2.37
2019-05-16T15:27:01.940Z,2.42
2019-05-16T15:29:30.724Z,4.60
2019-05-16T15:32:01.723Z,2.95
2019-05-16T15:34:34.729Z,4.10
2019-05-16T15:37:07.822Z,2.17
2019-05-16T15:39:39.039Z,2.45
2019-05-16T15:42:10.065Z,5.35
2019-05-16T15:44:41.093Z,2.37
2019-05-16T15:47:12.095Z,4.30
2019-05-16T15:49:43.093Z,1.67
2019-05-16T15:52:16.597Z,2.35
2019-05-16T15:54:48.401Z,2.02
2019-05-16T15:57:19.466Z,5.58
2019-05-16T15:59:50.413Z,3.27
2019-05-16T16:02:21.467Z,2.27
2019-05-16T16:04:52.544Z,2.65
2019-05-16T16:07:23.520Z,3.22
2019-05-16T16:09:54.554Z,2.83
2019-05-16T16:12:26.601Z,4.60
2019-05-16T16:14:57.640Z,3.92
2019-05-16T16:17:29.313Z,3.72
2019-05-16T16:20:00.538Z,5.35
2019-05-16T16:22:31.642Z,6.40
2019-05-16T16:25:02.636Z,4.87
2019-05-16T16:27:33.717Z,3.60
2019-05-16T16:30:08.297Z,3.77
2019-05-16T16:32:39.325Z,3.25
2019-05-16T16:35:13.730Z,5.30
2019-05-16T16:37:43.144Z,3.45
2019-05-16T16:40:14.416Z,4.40
2019-05-16T16:42:47.527Z,3.33
2019-05-16T16:45:18.871Z,4.12
2019-05-16T16:47:49.882Z,2.45
2019-05-16T16:50:22.509Z,4.10
2019-05-16T16:52:53.530Z,3.35
2019-05-16T16:55:24.563Z,5.00
2019-05-16T16:57:59.366Z,3.15
2019-05-16T17:00:28.394Z,3.27
2019-05-16T17:03:06.199Z,3.58
2019-05-16T17:05:32.147Z,3.92
2019-05-16T17:08:03.190Z,3.95
2019-05-16T17:10:34.221Z,3.50
2019-05-16T17:13:06.814Z,4.53
2019-05-16T17:15:38.130Z,4.50
2019-05-16T17:18:09.154Z,3.70
2019-05-16T17:20:40.153Z,4.37
2019-05-16T17:23:11.248Z,3.72
2019-05-16T17:25:42.257Z,3.92
2019-05-16T17:28:13.283Z,4.95
2019-05-16T17:30:46.872Z,3.33
2019-05-16T17:33:18.296Z,6.65
2019-05-16T17:35:49.680Z,2.12
2019-05-16T17:38:20.743Z,3.10
2019-05-16T17:40:51.723Z,3.85
2019-05-16T17:43:22.832Z,5.35
2019-05-16T17:45:53.793Z,4.85
2019-05-16T17:48:29.029Z,3.70
2019-05-16T17:50:57.507Z,4.25
2019-05-16T17:53:28.554Z,4.92
2019-05-16T17:55:59.549Z,4.15
2019-05-16T17:58:30.650Z,7.05
2019-05-16T18:01:01.690Z,3.85
2019-05-16T18:03:32.703Z,4.03
2019-05-16T18:06:06.167Z,3.60
2019-05-16T18:08:37.612Z,3.75
2019-05-16T18:11:08.944Z,4.17
2019-05-16T18:13:39.914Z,8.80
2019-05-16T18:16:10.983Z,4.10
2019-05-16T18:18:42.003Z,4.72
2019-05-16T18:21:13.554Z,3.70
2019-05-16T18:23:47.079Z,6.03
2019-05-16T18:26:17.471Z,4.55
2019-05-16T18:28:48.516Z,5.30
2019-05-16T18:31:19.527Z,3.45
2019-05-16T18:33:50.547Z,6.22
2019-05-16T18:36:28.967Z,4.17
2019-05-16T18:39:01.458Z,7.50
2019-05-16T18:41:32.637Z,4.90
2019-05-16T18:44:04.818Z,4.90
2019-05-16T18:46:36.308Z,4.70
2019-05-16T18:49:08.422Z,5.17
2019-05-16T18:51:39.392Z,4.87
2019-05-16T18:54:11.448Z,4.62
2019-05-16T18:56:42.441Z,5.78
2019-05-16T18:59:14.076Z,6.62
2019-05-16T19:01:46.858Z,5.37
2019-05-16T19:04:17.838Z,5.10
2019-05-16T19:06:48.893Z,4.60
2019-05-16T19:09:20.950Z,4.58
2019-05-16T19:11:51.928Z,3.70
2019-05-16T19:14:23.372Z,5.58
2019-05-16T19:16:56.589Z,7.37
2019-05-16T19:19:28.267Z,7.12
2019-05-16T19:21:59.486Z,3.60
2019-05-16T19:24:30.703Z,5.00
2019-05-16T19:27:01.663Z,4.83
2019-05-16T19:29:32.630Z,6.25
2019-05-16T19:32:03.620Z,4.95
2019-05-16T19:34:34.578Z,5.53
2019-05-16T19:37:07.035Z,8.30
2019-05-16T19:39:38.154Z,5.58
2019-05-16T19:42:09.187Z,8.98
2019-05-16T19:44:40.145Z,5.45
2019-05-16T19:47:11.165Z,4.37
2019-05-16T19:49:42.131Z,3.60
2019-05-16T19:52:13.112Z,3.25
2019-05-16T19:54:46.942Z,4.55
2019-05-16T19:57:17.551Z,5.62
2019-05-16T19:59:48.659Z,7.03
2019-05-16T20:02:19.633Z,4.85
2019-05-16T20:04:50.613Z,8.80
2019-05-16T20:07:21.603Z,6.65
2019-05-16T20:09:52.579Z,5.25
2019-05-16T20:12:23.555Z,5.40
2019-05-16T20:15:07.682Z,3.95
2019-05-16T20:17:27.208Z,4.55
2019-05-16T20:19:58.186Z,5.72
2019-05-16T20:22:29.143Z,7.97
2019-05-16T20:25:00.113Z,6.90
2019-05-16T20:27:31.089Z,6.40
2019-05-16T20:30:02.084Z,6.65
2019-05-16T20:32:33.052Z,7.37
2019-05-16T20:35:08.937Z,8.15
2019-05-16T20:37:40.261Z,7.95
2019-05-16T20:40:12.644Z,7.55
2019-05-16T20:42:43.801Z,7.97
2019-05-16T20:45:16.936Z,7.45
2019-05-16T20:47:48.135Z,7.42
2019-05-16T20:50:19.271Z,5.10
2019-05-16T20:52:50.268Z,7.50
2019-05-16T20:55:21.373Z,8.78
2019-05-16T20:57:52.400Z,7.17
2019-05-16T21:00:23.494Z,7.58
2019-05-16T21:02:57.366Z,11.38
2019-05-16T21:05:28.118Z,9.08
2019-05-16T21:07:59.327Z,9.68
2019-05-16T21:10:30.377Z,9.18
2019-05-16T21:13:01.403Z,8.60
2019-05-16T21:15:32.437Z,7.87
2019-05-16T21:18:03.413Z,8.15
2019-05-16T21:20:35.207Z,11.55
2019-05-16T21:23:07.297Z,10.58
2019-05-16T21:25:38.527Z,8.35
2019-05-16T21:28:09.569Z,10.03
2019-05-16T21:30:40.659Z,9.28
2019-05-16T21:33:11.703Z,7.85
2019-05-16T21:35:42.728Z,11.75
2019-05-16T21:38:13.743Z,8.53
2019-05-16T21:40:45.375Z,11.70
2019-05-16T21:43:16.899Z,11.97
2019-05-16T21:45:48.112Z,8.28
2019-05-16T21:48:19.376Z,11.00
2019-05-16T21:50:50.581Z,10.60
2019-05-16T21:53:21.602Z,9.50
2019-05-16T21:55:52.584Z,7.85
2019-05-16T21:58:26.737Z,6.03
2019-05-16T22:00:59.457Z,10.05
2019-05-16T22:03:30.555Z,11.43
2019-05-16T22:06:01.583Z,11.57
2019-05-16T22:08:32.671Z,12.07
2019-05-16T22:11:03.947Z,9.25
2019-05-16T22:13:37.005Z,12.25
2019-05-16T22:16:08.385Z,9.73
2019-05-16T22:18:39.419Z,9.55
2019-05-16T22:21:10.417Z,7.83
2019-05-16T22:23:41.422Z,11.38
2019-05-16T22:26:12.459Z,10.82
2019-05-16T22:28:43.542Z,9.98
2019-05-16T22:31:16.486Z,8.68
2019-05-16T22:33:47.647Z,7.87
2019-05-16T22:36:18.730Z,10.20
2019-05-16T22:38:49.810Z,10.95
2019-05-16T22:41:20.810Z,6.95
2019-05-16T22:43:51.816Z,9.08
2019-05-16T22:46:22.782Z,8.18
2019-05-16T22:48:53.829Z,6.72
2019-05-16T22:51:27.021Z,8.13
2019-05-16T22:53:58.806Z,9.83
2019-05-16T22:56:29.950Z,8.43
2019-05-16T22:59:00.978Z,8.13
2019-05-16T23:01:32.106Z,7.47
2019-05-16T23:04:03.185Z,9.88
2019-05-16T23:06:36.238Z,8.03
2019-05-16T23:09:07.695Z,10.25
2019-05-16T23:11:38.683Z,8.78
2019-05-16T23:14:09.762Z,8.28
2019-05-16T23:16:40.776Z,6.75
2019-05-16T23:19:11.837Z,7.40
2019-05-16T23:21:42.920Z,7.25
2019-05-16T23:24:13.937Z,7.72
2019-05-16T23:26:46.851Z,7.47
2019-05-16T23:29:17.661Z,7.75
2019-05-16T23:31:50.831Z,6.85
2019-05-16T23:34:21.484Z,7.75
2019-05-16T23:36:52.665Z,8.53
2019-05-16T23:39:23.711Z,8.80
2019-05-16T23:41:56.921Z,9.33
2019-05-16T23:44:28.168Z,11.18
2019-05-16T23:46:59.235Z,8.98
2019-05-16T23:49:30.381Z,11.57
2019-05-16T23:52:01.371Z,7.75
2019-05-16T23:54:32.419Z,11.22
2019-05-16T23:57:03.424Z,12.60
2019-05-16T23:59:36.908Z,12.88
